sensor_id;sensor_type;location;lat;lon;timestamp;temperature;humidity
73438;DHT22;66471;56.532;21.020;2023-08-12T00:01:47;13.80;99.80
73438;DHT22;66471;56.532;21.020;2023-08-12T00:04:14;13.80;99.80
73438;DHT22;66471;56.532;21.020;2023-08-12T00:06:43;13.90;99.90
73438;DHT22;66471;56.532;21.020;2023-08-12T00:09:10;13.90;99.90
73438;DHT22;66471;56.532;21.020;2023-08-12T00:11:42;13.90;99.90
73438;DHT22;66471;56.532;21.020;2023-08-12T00:14:09;14.00;99.90
73438;DHT22;66471;56.532;21.020;2023-08-12T00:16:36;14.00;99.70
73438;DHT22;66471;56.532;21.020;2023-08-12T00:19:03;13.90;99.60
73438;DHT22;66471;56.532;21.020;2023-08-12T00:21:30;14.00;99.80
73438;DHT22;66471;56.532;21.020;2023-08-12T00:23:57;14.00;99.90
73438;DHT22;66471;56.532;21.020;2023-08-12T00:26:24;14.10;99.80
73438;DHT22;66471;56.532;21.020;2023-08-12T00:28:52;14.10;99.90
73438;DHT22;66471;56.532;21.020;2023-08-12T00:31:19;14.20;99.90
73438;DHT22;66471;56.532;21.020;2023-08-12T00:33:46;14.20;99.40
73438;DHT22;66471;56.532;21.020;2023-08-12T00:36:13;14.20;98.90
73438;DHT22;66471;56.532;21.020;2023-08-12T00:38:40;14.10;97.80
73438;DHT22;66471;56.532;21.020;2023-08-12T00:41:07;14.20;96.70
73438;DHT22;66471;56.532;21.020;2023-08-12T00:43:34;14.40;92.80
73438;DHT22;66471;56.532;21.020;2023-08-12T00:46:01;14.50;91.70
73438;DHT22;66471;56.532;21.020;2023-08-12T00:48:29;14.60;90.70
73438;DHT22;66471;56.532;21.020;2023-08-12T00:50:56;14.60;90.00
73438;DHT22;66471;56.532;21.020;2023-08-12T00:53:23;14.50;90.50
73438;DHT22;66471;56.532;21.020;2023-08-12T00:55:50;14.60;89.60
73438;DHT22;66471;56.532;21.020;2023-08-12T00:58:18;14.70;87.90
73438;DHT22;66471;56.532;21.020;2023-08-12T01:00:45;14.80;87.90
73438;DHT22;66471;56.532;21.020;2023-08-12T01:03:12;14.90;88.00
73438;DHT22;66471;56.532;21.020;2023-08-12T01:05:40;15.00;87.10
73438;DHT22;66471;56.532;21.020;2023-08-12T01:08:08;14.80;91.30
73438;DHT22;66471;56.532;21.020;2023-08-12T01:10:37;14.50;92.60
73438;DHT22;66471;56.532;21.020;2023-08-12T01:15:50;13.90;96.20
73438;DHT22;66471;56.532;21.020;2023-08-12T01:18:19;13.70;97.40
73438;DHT22;66471;56.532;21.020;2023-08-12T01:20:47;13.50;98.20
73438;DHT22;66471;56.532;21.020;2023-08-12T01:23:15;13.40;98.30
73438;DHT22;66471;56.532;21.020;2023-08-12T01:25:42;13.30;99.10
73438;DHT22;66471;56.532;21.020;2023-08-12T01:28:10;13.20;99.00
73438;DHT22;66471;56.532;21.020;2023-08-12T01:30:59;13.10;99.60
73438;DHT22;66471;56.532;21.020;2023-08-12T01:33:33;13.00;99.90
73438;DHT22;66471;56.532;21.020;2023-08-12T01:36:10;12.90;99.90
73438;DHT22;66471;56.532;21.020;2023-08-12T01:38:38;12.90;99.90
73438;DHT22;66471;56.532;21.020;2023-08-12T01:41:09;12.90;99.90
73438;DHT22;66471;56.532;21.020;2023-08-12T01:43:38;12.80;99.90
73438;DHT22;66471;56.532;21.020;2023-08-12T01:46:05;12.80;99.90
73438;DHT22;66471;56.532;21.020;2023-08-12T01:48:33;12.70;99.90
73438;DHT22;66471;56.532;21.020;2023-08-12T01:51:00;12.70;99.90
73438;DHT22;66471;56.532;21.020;2023-08-12T01:53:27;12.60;99.90
73438;DHT22;66471;56.532;21.020;2023-08-12T01:55:54;12.50;99.90
73438;DHT22;66471;56.532;21.020;2023-08-12T01:58:21;12.50;99.90
73438;DHT22;66471;56.532;21.020;2023-08-12T02:00:48;12.50;99.90
73438;DHT22;66471;56.532;21.020;2023-08-12T02:03:15;12.40;99.90
73438;DHT22;66471;56.532;21.020;2023-08-12T02:05:42;12.40;99.90
73438;DHT22;66471;56.532;21.020;2023-08-12T02:08:10;12.40;99.90
73438;DHT22;66471;56.532;21.020;2023-08-12T02:10:37;12.60;99.90
73438;DHT22;66471;56.532;21.020;2023-08-12T02:13:04;12.40;99.90
73438;DHT22;66471;56.532;21.020;2023-08-12T02:15:31;12.50;99.90
73438;DHT22;66471;56.532;21.020;2023-08-12T02:17:58;12.50;99.90
73438;DHT22;66471;56.532;21.020;2023-08-12T02:20:25;12.40;99.90
73438;DHT22;66471;56.532;21.020;2023-08-12T02:22:52;12.40;99.90
73438;DHT22;66471;56.532;21.020;2023-08-12T02:25:19;12.40;99.90
73438;DHT22;66471;56.532;21.020;2023-08-12T02:27:46;12.50;99.90
73438;DHT22;66471;56.532;21.020;2023-08-12T02:30:13;12.40;99.90
73438;DHT22;66471;56.532;21.020;2023-08-12T02:32:40;12.30;99.90
73438;DHT22;66471;56.532;21.020;2023-08-12T02:35:10;12.30;99.90
73438;DHT22;66471;56.532;21.020;2023-08-12T02:37:37;12.20;99.90
73438;DHT22;66471;56.532;21.020;2023-08-12T02:40:05;12.10;99.90
73438;DHT22;66471;56.532;21.020;2023-08-12T02:42:32;12.10;99.90
73438;DHT22;66471;56.532;21.020;2023-08-12T02:44:59;12.30;99.90
73438;DHT22;66471;56.532;21.020;2023-08-12T02:47:27;12.20;99.90
73438;DHT22;66471;56.532;21.020;2023-08-12T02:49:55;12.20;99.90
73438;DHT22;66471;56.532;21.020;2023-08-12T02:52:22;12.30;99.90
73438;DHT22;66471;56.532;21.020;2023-08-12T02:54:49;12.20;99.90
73438;DHT22;66471;56.532;21.020;2023-08-12T02:57:16;12.10;99.90
73438;DHT22;66471;56.532;21.020;2023-08-12T02:59:43;12.20;99.90
73438;DHT22;66471;56.532;21.020;2023-08-12T03:02:10;12.20;99.90
73438;DHT22;66471;56.532;21.020;2023-08-12T03:04:37;12.10;99.90
73438;DHT22;66471;56.532;21.020;2023-08-12T03:07:04;12.10;99.90
73438;DHT22;66471;56.532;21.020;2023-08-12T03:09:31;12.20;99.90
73438;DHT22;66471;56.532;21.020;2023-08-12T03:11:58;12.30;99.90
73438;DHT22;66471;56.532;21.020;2023-08-12T03:14:31;12.10;99.90
73438;DHT22;66471;56.532;21.020;2023-08-12T03:16:58;12.20;99.90
73438;DHT22;66471;56.532;21.020;2023-08-12T03:19:25;12.10;99.90
73438;DHT22;66471;56.532;21.020;2023-08-12T03:21:52;12.20;99.90
73438;DHT22;66471;56.532;21.020;2023-08-12T03:24:19;12.00;99.90
73438;DHT22;66471;56.532;21.020;2023-08-12T03:26:46;11.90;99.90
73438;DHT22;66471;56.532;21.020;2023-08-12T03:29:13;12.00;99.90
73438;DHT22;66471;56.532;21.020;2023-08-12T03:31:40;12.00;99.90
73438;DHT22;66471;56.532;21.020;2023-08-12T03:34:07;12.00;99.90
73438;DHT22;66471;56.532;21.020;2023-08-12T03:36:34;11.90;99.90
73438;DHT22;66471;56.532;21.020;2023-08-12T03:39:02;12.10;99.90
73438;DHT22;66471;56.532;21.020;2023-08-12T03:41:29;12.00;99.90
73438;DHT22;66471;56.532;21.020;2023-08-12T03:43:57;12.00;99.90
73438;DHT22;66471;56.532;21.020;2023-08-12T03:46:24;12.10;99.90
73438;DHT22;66471;56.532;21.020;2023-08-12T03:48:52;12.20;99.90
73438;DHT22;66471;56.532;21.020;2023-08-12T03:51:19;12.30;99.90
73438;DHT22;66471;56.532;21.020;2023-08-12T03:53:46;12.30;99.90
73438;DHT22;66471;56.532;21.020;2023-08-12T03:56:13;12.30;99.90
73438;DHT22;66471;56.532;21.020;2023-08-12T03:58:45;12.40;99.90
73438;DHT22;66471;56.532;21.020;2023-08-12T04:01:12;12.40;99.90
73438;DHT22;66471;56.532;21.020;2023-08-12T04:03:39;12.40;99.90
73438;DHT22;66471;56.532;21.020;2023-08-12T04:06:06;12.40;99.90
73438;DHT22;66471;56.532;21.020;2023-08-12T04:08:33;12.50;99.90
73438;DHT22;66471;56.532;21.020;2023-08-12T04:11:01;12.50;99.90
73438;DHT22;66471;56.532;21.020;2023-08-12T04:13:28;12.60;99.90
73438;DHT22;66471;56.532;21.020;2023-08-12T04:15:55;12.70;99.90
73438;DHT22;66471;56.532;21.020;2023-08-12T04:18:22;12.50;99.90
73438;DHT22;66471;56.532;21.020;2023-08-12T04:20:49;12.70;99.90
73438;DHT22;66471;56.532;21.020;2023-08-12T04:23:17;12.90;99.90
73438;DHT22;66471;56.532;21.020;2023-08-12T04:25:46;13.00;99.90
73438;DHT22;66471;56.532;21.020;2023-08-12T04:28:14;13.00;99.80
73438;DHT22;66471;56.532;21.020;2023-08-12T04:30:46;13.10;99.60
73438;DHT22;66471;56.532;21.020;2023-08-12T04:33:14;13.20;99.30
73438;DHT22;66471;56.532;21.020;2023-08-12T04:35:41;13.30;99.00
73438;DHT22;66471;56.532;21.020;2023-08-12T04:38:08;13.40;98.80
73438;DHT22;66471;56.532;21.020;2023-08-12T04:40:39;13.40;98.20
73438;DHT22;66471;56.532;21.020;2023-08-12T04:43:10;13.60;97.70
73438;DHT22;66471;56.532;21.020;2023-08-12T04:45:37;13.70;97.70
73438;DHT22;66471;56.532;21.020;2023-08-12T04:48:07;13.70;97.70
73438;DHT22;66471;56.532;21.020;2023-08-12T04:50:35;13.80;97.20
73438;DHT22;66471;56.532;21.020;2023-08-12T04:53:02;13.90;97.60
73438;DHT22;66471;56.532;21.020;2023-08-12T04:55:30;13.90;97.50
73438;DHT22;66471;56.532;21.020;2023-08-12T04:57:57;14.10;97.10
73438;DHT22;66471;56.532;21.020;2023-08-12T05:00:25;14.30;96.80
73438;DHT22;66471;56.532;21.020;2023-08-12T05:02:56;14.40;96.10
73438;DHT22;66471;56.532;21.020;2023-08-12T05:05:25;14.50;95.80
73438;DHT22;66471;56.532;21.020;2023-08-12T05:07:52;14.60;95.60
73438;DHT22;66471;56.532;21.020;2023-08-12T05:10:19;14.60;95.10
73438;DHT22;66471;56.532;21.020;2023-08-12T05:12:46;14.70;95.50
73438;DHT22;66471;56.532;21.020;2023-08-12T05:15:14;14.90;95.50
73438;DHT22;66471;56.532;21.020;2023-08-12T05:17:41;15.00;95.10
73438;DHT22;66471;56.532;21.020;2023-08-12T05:20:08;15.10;93.80
73438;DHT22;66471;56.532;21.020;2023-08-12T05:22:35;15.00;94.70
73438;DHT22;66471;56.532;21.020;2023-08-12T05:25:02;15.10;94.60
73438;DHT22;66471;56.532;21.020;2023-08-12T05:27:30;15.10;94.10
73438;DHT22;66471;56.532;21.020;2023-08-12T05:29:57;15.10;94.80
73438;DHT22;66471;56.532;21.020;2023-08-12T05:32:24;15.20;94.10
73438;DHT22;66471;56.532;21.020;2023-08-12T05:34:52;15.40;92.10
73438;DHT22;66471;56.532;21.020;2023-08-12T05:37:20;15.40;93.00
73438;DHT22;66471;56.532;21.020;2023-08-12T05:39:47;15.50;92.00
73438;DHT22;66471;56.532;21.020;2023-08-12T05:42:14;15.80;91.00
73438;DHT22;66471;56.532;21.020;2023-08-12T05:44:42;16.10;90.20
73438;DHT22;66471;56.532;21.020;2023-08-12T05:47:09;16.40;88.30
73438;DHT22;66471;56.532;21.020;2023-08-12T05:49:36;16.30;88.80
73438;DHT22;66471;56.532;21.020;2023-08-12T05:52:04;16.50;88.40
73438;DHT22;66471;56.532;21.020;2023-08-12T05:54:31;16.80;87.90
73438;DHT22;66471;56.532;21.020;2023-08-12T05:56:58;17.20;86.60
73438;DHT22;66471;56.532;21.020;2023-08-12T05:59:25;17.40;86.30
73438;DHT22;66471;56.532;21.020;2023-08-12T06:01:53;17.60;86.60
73438;DHT22;66471;56.532;21.020;2023-08-12T06:04:21;17.80;85.60
73438;DHT22;66471;56.532;21.020;2023-08-12T06:06:48;17.90;85.80
73438;DHT22;66471;56.532;21.020;2023-08-12T06:09:18;18.20;82.60
73438;DHT22;66471;56.532;21.020;2023-08-12T06:11:45;18.50;83.10
73438;DHT22;66471;56.532;21.020;2023-08-12T06:14:12;18.70;82.60
73438;DHT22;66471;56.532;21.020;2023-08-12T06:16:39;18.80;82.20
73438;DHT22;66471;56.532;21.020;2023-08-12T06:19:06;19.00;80.70
73438;DHT22;66471;56.532;21.020;2023-08-12T06:21:33;19.30;80.60
73438;DHT22;66471;56.532;21.020;2023-08-12T06:24:00;19.60;79.90
73438;DHT22;66471;56.532;21.020;2023-08-12T06:26:27;19.60;78.50
73438;DHT22;66471;56.532;21.020;2023-08-12T06:28:55;20.00;78.30
73438;DHT22;66471;56.532;21.020;2023-08-12T06:31:22;20.30;77.60
73438;DHT22;66471;56.532;21.020;2023-08-12T06:33:49;20.50;77.80
73438;DHT22;66471;56.532;21.020;2023-08-12T06:36:16;20.60;76.50
73438;DHT22;66471;56.532;21.020;2023-08-12T06:38:43;20.80;76.60
73438;DHT22;66471;56.532;21.020;2023-08-12T06:41:10;21.20;74.30
73438;DHT22;66471;56.532;21.020;2023-08-12T06:43:37;21.60;73.60
73438;DHT22;66471;56.532;21.020;2023-08-12T06:46:04;21.70;73.40
73438;DHT22;66471;56.532;21.020;2023-08-12T06:48:31;21.80;73.40
73438;DHT22;66471;56.532;21.020;2023-08-12T06:50:58;22.00;72.40
73438;DHT22;66471;56.532;21.020;2023-08-12T06:53:26;22.20;71.80
73438;DHT22;66471;56.532;21.020;2023-08-12T06:55:53;22.30;71.60
73438;DHT22;66471;56.532;21.020;2023-08-12T06:58:21;22.80;67.60
73438;DHT22;66471;56.532;21.020;2023-08-12T07:00:48;23.20;66.90
73438;DHT22;66471;56.532;21.020;2023-08-12T07:03:15;23.00;65.30
73438;DHT22;66471;56.532;21.020;2023-08-12T07:05:42;23.30;66.10
73438;DHT22;66471;56.532;21.020;2023-08-12T07:08:09;23.60;63.70
73438;DHT22;66471;56.532;21.020;2023-08-12T07:10:40;23.80;63.00
73438;DHT22;66471;56.532;21.020;2023-08-12T07:13:07;24.40;61.30
73438;DHT22;66471;56.532;21.020;2023-08-12T07:15:35;23.90;63.10
73438;DHT22;66471;56.532;21.020;2023-08-12T07:18:03;24.00;60.70
73438;DHT22;66471;56.532;21.020;2023-08-12T07:20:30;23.60;64.00
73438;DHT22;66471;56.532;21.020;2023-08-12T07:22:57;23.90;62.80
73438;DHT22;66471;56.532;21.020;2023-08-12T07:25:24;23.60;62.50
73438;DHT22;66471;56.532;21.020;2023-08-12T07:27:51;24.10;61.90
73438;DHT22;66471;56.532;21.020;2023-08-12T07:30:18;24.30;59.10
73438;DHT22;66471;56.532;21.020;2023-08-12T07:32:45;24.30;59.30
73438;DHT22;66471;56.532;21.020;2023-08-12T07:35:13;24.50;60.70
73438;DHT22;66471;56.532;21.020;2023-08-12T07:37:41;25.00;58.50
73438;DHT22;66471;56.532;21.020;2023-08-12T07:40:10;25.90;58.60
73438;DHT22;66471;56.532;21.020;2023-08-12T07:42:37;25.70;56.30
73438;DHT22;66471;56.532;21.020;2023-08-12T07:45:06;25.60;57.10
73438;DHT22;66471;56.532;21.020;2023-08-12T07:47:34;25.90;55.00
73438;DHT22;66471;56.532;21.020;2023-08-12T07:50:04;26.20;55.60
73438;DHT22;66471;56.532;21.020;2023-08-12T07:52:32;26.30;57.00
73438;DHT22;66471;56.532;21.020;2023-08-12T07:55:02;26.20;55.50
73438;DHT22;66471;56.532;21.020;2023-08-12T07:57:30;26.50;54.00
73438;DHT22;66471;56.532;21.020;2023-08-12T07:59:59;25.90;55.70
73438;DHT22;66471;56.532;21.020;2023-08-12T08:02:27;26.40;54.30
73438;DHT22;66471;56.532;21.020;2023-08-12T08:04:59;26.70;54.60
73438;DHT22;66471;56.532;21.020;2023-08-12T08:07:27;26.90;51.60
73438;DHT22;66471;56.532;21.020;2023-08-12T08:09:57;26.50;53.10
73438;DHT22;66471;56.532;21.020;2023-08-12T08:12:28;26.80;53.00
73438;DHT22;66471;56.532;21.020;2023-08-12T08:14:56;27.10;50.30
73438;DHT22;66471;56.532;21.020;2023-08-12T08:17:24;26.70;51.90
73438;DHT22;66471;56.532;21.020;2023-08-12T08:19:52;26.80;52.50
73438;DHT22;66471;56.532;21.020;2023-08-12T08:22:20;26.70;52.40
73438;DHT22;66471;56.532;21.020;2023-08-12T08:24:48;26.60;52.70
73438;DHT22;66471;56.532;21.020;2023-08-12T08:27:16;26.70;51.40
73438;DHT22;66471;56.532;21.020;2023-08-12T08:29:46;26.50;51.60
73438;DHT22;66471;56.532;21.020;2023-08-12T08:32:16;26.30;54.30
73438;DHT22;66471;56.532;21.020;2023-08-12T08:34:44;26.40;51.60
73438;DHT22;66471;56.532;21.020;2023-08-12T08:37:14;26.30;53.50
73438;DHT22;66471;56.532;21.020;2023-08-12T08:39:41;26.80;52.70
73438;DHT22;66471;56.532;21.020;2023-08-12T08:42:12;26.90;52.90
73438;DHT22;66471;56.532;21.020;2023-08-12T16:26:00;21.50;58.40
73438;DHT22;66471;56.532;21.020;2023-08-12T16:28:27;21.20;61.30
73438;DHT22;66471;56.532;21.020;2023-08-12T16:30:55;21.00;61.60
73438;DHT22;66471;56.532;21.020;2023-08-12T16:33:22;20.90;64.40
73438;DHT22;66471;56.532;21.020;2023-08-12T16:35:49;20.70;63.30
73438;DHT22;66471;56.532;21.020;2023-08-12T16:38:16;20.60;64.00
73438;DHT22;66471;56.532;21.020;2023-08-12T16:40:43;20.60;65.50
73438;DHT22;66471;56.532;21.020;2023-08-12T16:43:11;20.50;64.80
73438;DHT22;66471;56.532;21.020;2023-08-12T16:45:38;20.70;64.70
73438;DHT22;66471;56.532;21.020;2023-08-12T16:48:06;20.50;67.70
73438;DHT22;66471;56.532;21.020;2023-08-12T16:50:33;20.40;69.20
73438;DHT22;66471;56.532;21.020;2023-08-12T16:53:01;20.40;68.90
73438;DHT22;66471;56.532;21.020;2023-08-12T16:55:28;20.30;67.60
73438;DHT22;66471;56.532;21.020;2023-08-12T16:57:56;20.30;69.90
73438;DHT22;66471;56.532;21.020;2023-08-12T17:00:23;20.30;68.40
73438;DHT22;66471;56.532;21.020;2023-08-12T17:02:50;20.20;67.30
73438;DHT22;66471;56.532;21.020;2023-08-12T17:05:17;20.20;69.90
73438;DHT22;66471;56.532;21.020;2023-08-12T17:07:45;20.20;70.20
73438;DHT22;66471;56.532;21.020;2023-08-12T17:10:12;20.20;70.60
73438;DHT22;66471;56.532;21.020;2023-08-12T17:12:40;20.00;71.00
73438;DHT22;66471;56.532;21.020;2023-08-12T17:15:07;20.00;72.30
73438;DHT22;66471;56.532;21.020;2023-08-12T17:17:35;20.00;72.10
73438;DHT22;66471;56.532;21.020;2023-08-12T17:20:03;19.70;73.30
73438;DHT22;66471;56.532;21.020;2023-08-12T17:22:31;19.60;73.80
73438;DHT22;66471;56.532;21.020;2023-08-12T17:25:07;19.50;74.30
73438;DHT22;66471;56.532;21.020;2023-08-12T17:27:35;19.50;75.10
73438;DHT22;66471;56.532;21.020;2023-08-12T17:30:03;19.20;74.70
73438;DHT22;66471;56.532;21.020;2023-08-12T17:32:30;19.20;75.70
73438;DHT22;66471;56.532;21.020;2023-08-12T17:34:57;19.20;77.20
73438;DHT22;66471;56.532;21.020;2023-08-12T17:37:24;19.00;76.90
73438;DHT22;66471;56.532;21.020;2023-08-12T17:39:52;18.80;77.40
73438;DHT22;66471;56.532;21.020;2023-08-12T17:42:19;18.70;77.80
73438;DHT22;66471;56.532;21.020;2023-08-12T17:44:49;18.60;77.90
73438;DHT22;66471;56.532;21.020;2023-08-12T17:47:17;18.60;78.90
73438;DHT22;66471;56.532;21.020;2023-08-12T17:49:44;18.50;77.30
73438;DHT22;66471;56.532;21.020;2023-08-12T17:52:12;18.40;79.30
73438;DHT22;66471;56.532;21.020;2023-08-12T17:54:40;18.40;79.30
73438;DHT22;66471;56.532;21.020;2023-08-12T17:57:08;18.30;79.00
73438;DHT22;66471;56.532;21.020;2023-08-12T17:59:35;18.30;79.80
73438;DHT22;66471;56.532;21.020;2023-08-12T18:02:02;18.00;82.30
73438;DHT22;66471;56.532;21.020;2023-08-12T18:04:29;18.00;82.20
73438;DHT22;66471;56.532;21.020;2023-08-12T18:06:56;17.80;82.80
73438;DHT22;66471;56.532;21.020;2023-08-12T18:09:23;17.80;83.20
73438;DHT22;66471;56.532;21.020;2023-08-12T18:11:51;17.60;83.50
73438;DHT22;66471;56.532;21.020;2023-08-12T18:14:21;17.60;84.40
73438;DHT22;66471;56.532;21.020;2023-08-12T18:16:48;17.50;84.60
73438;DHT22;66471;56.532;21.020;2023-08-12T18:19:15;17.40;85.20
73438;DHT22;66471;56.532;21.020;2023-08-12T18:21:42;17.40;85.90
73438;DHT22;66471;56.532;21.020;2023-08-12T18:24:09;17.30;85.50
73438;DHT22;66471;56.532;21.020;2023-08-12T18:26:39;17.20;86.20
73438;DHT22;66471;56.532;21.020;2023-08-12T18:29:06;17.10;86.60
73438;DHT22;66471;56.532;21.020;2023-08-12T18:31:34;17.10;86.80
73438;DHT22;66471;56.532;21.020;2023-08-12T18:34:03;16.90;87.70
73438;DHT22;66471;56.532;21.020;2023-08-12T18:36:30;16.90;87.90
73438;DHT22;66471;56.532;21.020;2023-08-12T18:38:58;16.80;88.40
73438;DHT22;66471;56.532;21.020;2023-08-12T18:41:25;16.80;88.50
73438;DHT22;66471;56.532;21.020;2023-08-12T18:43:52;16.70;88.70
73438;DHT22;66471;56.532;21.020;2023-08-12T18:46:19;16.70;88.70
73438;DHT22;66471;56.532;21.020;2023-08-12T18:48:46;16.50;89.20
73438;DHT22;66471;56.532;21.020;2023-08-12T18:51:14;16.50;90.50
73438;DHT22;66471;56.532;21.020;2023-08-12T18:53:41;16.40;90.40
73438;DHT22;66471;56.532;21.020;2023-08-12T18:56:08;16.30;90.60
73438;DHT22;66471;56.532;21.020;2023-08-12T18:58:35;16.40;90.60
73438;DHT22;66471;56.532;21.020;2023-08-12T19:01:02;16.30;90.60
73438;DHT22;66471;56.532;21.020;2023-08-12T19:03:29;16.20;91.20
73438;DHT22;66471;56.532;21.020;2023-08-12T19:05:58;16.20;92.50
73438;DHT22;66471;56.532;21.020;2023-08-12T19:08:25;16.20;92.70
73438;DHT22;66471;56.532;21.020;2023-08-12T19:10:54;16.10;92.60
73438;DHT22;66471;56.532;21.020;2023-08-12T19:13:25;15.90;92.60
73438;DHT22;66471;56.532;21.020;2023-08-12T19:15:53;15.90;92.70
73438;DHT22;66471;56.532;21.020;2023-08-12T19:18:22;15.90;92.90
73438;DHT22;66471;56.532;21.020;2023-08-12T19:20:50;15.90;93.10
73438;DHT22;66471;56.532;21.020;2023-08-12T19:23:19;15.80;93.30
73438;DHT22;66471;56.532;21.020;2023-08-12T19:25:47;15.80;93.60
73438;DHT22;66471;56.532;21.020;2023-08-12T19:28:15;15.70;93.60
73438;DHT22;66471;56.532;21.020;2023-08-12T19:30:47;15.70;93.60
73438;DHT22;66471;56.532;21.020;2023-08-12T19:33:18;15.70;94.30
73438;DHT22;66471;56.532;21.020;2023-08-12T19:35:46;15.70;94.50
73438;DHT22;66471;56.532;21.020;2023-08-12T19:38:14;15.60;94.70
73438;DHT22;66471;56.532;21.020;2023-08-12T19:40:42;15.60;94.60
73438;DHT22;66471;56.532;21.020;2023-08-12T19:43:09;15.60;94.60
73438;DHT22;66471;56.532;21.020;2023-08-12T19:45:37;15.60;94.60
73438;DHT22;66471;56.532;21.020;2023-08-12T19:48:04;15.60;94.80
73438;DHT22;66471;56.532;21.020;2023-08-12T19:50:31;15.50;94.40
73438;DHT22;66471;56.532;21.020;2023-08-12T19:53:00;15.40;94.40
73438;DHT22;66471;56.532;21.020;2023-08-12T19:55:27;15.40;96.10
73438;DHT22;66471;56.532;21.020;2023-08-12T19:57:57;15.30;96.30
73438;DHT22;66471;56.532;21.020;2023-08-12T20:00:25;15.20;96.40
73438;DHT22;66471;56.532;21.020;2023-08-12T20:02:54;15.20;96.90
73438;DHT22;66471;56.532;21.020;2023-08-12T20:05:22;15.20;96.80
73438;DHT22;66471;56.532;21.020;2023-08-12T20:07:49;15.20;97.00
73438;DHT22;66471;56.532;21.020;2023-08-12T20:10:19;15.10;97.50
73438;DHT22;66471;56.532;21.020;2023-08-12T20:12:47;15.10;97.60
73438;DHT22;66471;56.532;21.020;2023-08-12T20:15:15;15.10;97.70
73438;DHT22;66471;56.532;21.020;2023-08-12T20:17:43;15.10;97.50
73438;DHT22;66471;56.532;21.020;2023-08-12T20:20:12;15.00;97.80
73438;DHT22;66471;56.532;21.020;2023-08-12T20:22:40;15.10;98.00
73438;DHT22;66471;56.532;21.020;2023-08-12T20:25:33;15.00;98.10
73438;DHT22;66471;56.532;21.020;2023-08-12T20:28:00;15.00;98.40
73438;DHT22;66471;56.532;21.020;2023-08-12T20:30:27;15.00;97.90
73438;DHT22;66471;56.532;21.020;2023-08-12T20:32:54;14.90;98.20
73438;DHT22;66471;56.532;21.020;2023-08-12T20:35:22;14.80;98.40
73438;DHT22;66471;56.532;21.020;2023-08-12T20:37:49;14.80;98.50
73438;DHT22;66471;56.532;21.020;2023-08-12T20:40:19;14.90;98.40
73438;DHT22;66471;56.532;21.020;2023-08-12T20:42:46;14.90;98.50
73438;DHT22;66471;56.532;21.020;2023-08-12T20:45:14;14.80;98.20
73438;DHT22;66471;56.532;21.020;2023-08-12T20:47:41;14.90;98.50
73438;DHT22;66471;56.532;21.020;2023-08-12T20:50:08;14.90;98.00
73438;DHT22;66471;56.532;21.020;2023-08-12T20:52:36;14.80;97.90
73438;DHT22;66471;56.532;21.020;2023-08-12T20:55:03;14.80;98.10
73438;DHT22;66471;56.532;21.020;2023-08-12T20:57:30;14.90;98.10
73438;DHT22;66471;56.532;21.020;2023-08-12T20:59:57;14.90;97.80
73438;DHT22;66471;56.532;21.020;2023-08-12T21:02:28;14.80;97.70
73438;DHT22;66471;56.532;21.020;2023-08-12T21:04:56;14.80;97.70
73438;DHT22;66471;56.532;21.020;2023-08-12T21:07:23;14.80;97.80
73438;DHT22;66471;56.532;21.020;2023-08-12T21:09:50;14.70;97.80
73438;DHT22;66471;56.532;21.020;2023-08-12T21:12:17;14.70;97.90
73438;DHT22;66471;56.532;21.020;2023-08-12T21:14:45;14.70;98.00
73438;DHT22;66471;56.532;21.020;2023-08-12T21:17:14;14.70;98.40
73438;DHT22;66471;56.532;21.020;2023-08-12T21:19:43;14.60;98.70
73438;DHT22;66471;56.532;21.020;2023-08-12T21:22:11;14.60;98.60
73438;DHT22;66471;56.532;21.020;2023-08-12T21:24:39;14.60;98.70
73438;DHT22;66471;56.532;21.020;2023-08-12T21:27:06;14.60;98.60
73438;DHT22;66471;56.532;21.020;2023-08-12T21:29:33;14.50;98.40
73438;DHT22;66471;56.532;21.020;2023-08-12T21:32:00;14.50;98.80
73438;DHT22;66471;56.532;21.020;2023-08-12T21:34:27;14.50;99.10
73438;DHT22;66471;56.532;21.020;2023-08-12T21:36:54;14.50;98.80
73438;DHT22;66471;56.532;21.020;2023-08-12T21:39:21;14.50;98.90
73438;DHT22;66471;56.532;21.020;2023-08-12T21:41:49;14.50;98.90
73438;DHT22;66471;56.532;21.020;2023-08-12T21:44:16;14.40;99.10
73438;DHT22;66471;56.532;21.020;2023-08-12T21:46:43;14.40;99.10
73438;DHT22;66471;56.532;21.020;2023-08-12T21:49:10;14.40;99.00
73438;DHT22;66471;56.532;21.020;2023-08-12T21:51:37;14.40;99.40
73438;DHT22;66471;56.532;21.020;2023-08-12T21:54:04;14.40;99.10
73438;DHT22;66471;56.532;21.020;2023-08-12T21:56:31;14.40;99.00
73438;DHT22;66471;56.532;21.020;2023-08-12T21:58:58;14.50;99.00
73438;DHT22;66471;56.532;21.020;2023-08-12T22:01:25;14.40;98.70
73438;DHT22;66471;56.532;21.020;2023-08-12T22:03:53;14.40;98.90
73438;DHT22;66471;56.532;21.020;2023-08-12T22:06:20;14.50;98.90
73438;DHT22;66471;56.532;21.020;2023-08-12T22:08:47;14.50;98.80
73438;DHT22;66471;56.532;21.020;2023-08-12T22:11:14;14.50;98.80
73438;DHT22;66471;56.532;21.020;2023-08-12T22:13:41;14.50;98.60
73438;DHT22;66471;56.532;21.020;2023-08-12T22:16:08;14.50;98.80
73438;DHT22;66471;56.532;21.020;2023-08-12T22:18:35;14.50;99.10
73438;DHT22;66471;56.532;21.020;2023-08-12T22:21:02;14.50;99.00
73438;DHT22;66471;56.532;21.020;2023-08-12T22:23:30;14.50;99.10
73438;DHT22;66471;56.532;21.020;2023-08-12T22:25:57;14.60;98.70
73438;DHT22;66471;56.532;21.020;2023-08-12T22:28:24;14.60;98.90
73438;DHT22;66471;56.532;21.020;2023-08-12T22:30:51;14.60;98.70
73438;DHT22;66471;56.532;21.020;2023-08-12T22:33:19;14.60;99.00
73438;DHT22;66471;56.532;21.020;2023-08-12T22:35:47;14.60;98.70
73438;DHT22;66471;56.532;21.020;2023-08-12T22:38:14;14.60;98.80
73438;DHT22;66471;56.532;21.020;2023-08-12T22:40:41;14.70;98.80
73438;DHT22;66471;56.532;21.020;2023-08-12T22:43:08;14.60;98.70
73438;DHT22;66471;56.532;21.020;2023-08-12T22:45:43;14.60;98.80
73438;DHT22;66471;56.532;21.020;2023-08-12T22:48:10;14.60;98.90
73438;DHT22;66471;56.532;21.020;2023-08-12T22:50:37;14.60;99.00
73438;DHT22;66471;56.532;21.020;2023-08-12T22:53:04;14.60;99.00
73438;DHT22;66471;56.532;21.020;2023-08-12T22:55:32;14.70;98.70
73438;DHT22;66471;56.532;21.020;2023-08-12T22:57:59;14.70;98.70
73438;DHT22;66471;56.532;21.020;2023-08-12T23:00:26;14.70;98.60
73438;DHT22;66471;56.532;21.020;2023-08-12T23:02:53;14.60;98.80